createdAt,value
2023-03-17T00:01:20.655Z,63.95
2023-03-17T00:03:50.493Z,63.57
2023-03-17T00:06:24.560Z,64.07
2023-03-17T00:08:52.467Z,63.93
2023-03-17T00:11:21.110Z,63.53
2023-03-17T00:13:51.088Z,63.82
2023-03-17T00:16:22.044Z,64.09
2023-03-17T00:18:51.050Z,63.93
2023-03-17T00:21:30.565Z,63.83
2023-03-17T00:23:59.493Z,64.23
2023-03-17T00:26:27.663Z,65.15
2023-03-17T00:28:56.925Z,64.81
2023-03-17T00:31:27.237Z,65.14
2023-03-17T00:33:56.708Z,65.70
2023-03-17T00:36:27.990Z,65.25
2023-03-17T00:38:56.287Z,65.14
2023-03-17T00:41:27.097Z,64.48
2023-03-17T00:43:57.199Z,64.62
2023-03-17T00:46:27.844Z,64.97
2023-03-17T00:48:56.204Z,66.23
2023-03-17T00:51:24.291Z,65.12
2023-03-17T00:53:52.738Z,66.15
2023-03-17T00:56:22.282Z,66.51
2023-03-17T00:58:50.400Z,65.45
2023-03-17T01:01:19.943Z,65.96
2023-03-17T01:03:48.329Z,65.68
2023-03-17T01:06:16.282Z,66.10
2023-03-17T01:08:45.322Z,66.98
2023-03-17T01:11:17.761Z,67.61
2023-03-17T01:13:46.601Z,66.74
2023-03-17T01:16:15.539Z,68.82
2023-03-17T01:18:45.711Z,69.17
2023-03-17T01:21:14.005Z,69.53
2023-03-17T01:23:42.140Z,69.17
2023-03-17T01:26:09.935Z,68.67
2023-03-17T01:28:37.820Z,67.67
2023-03-17T01:31:05.931Z,67.00
2023-03-17T01:33:33.785Z,66.94
2023-03-17T01:36:03.134Z,66.29
2023-03-17T01:38:31.234Z,65.84
2023-03-17T01:40:59.313Z,66.54
2023-03-17T01:43:29.342Z,66.63
2023-03-17T01:46:23.151Z,66.47
2023-03-17T01:48:59.632Z,66.91
2023-03-17T01:51:33.157Z,66.88
2023-03-17T01:54:04.313Z,67.44
2023-03-17T01:56:32.420Z,67.09
2023-03-17T01:59:03.860Z,66.37
2023-03-17T02:01:38.640Z,65.60
2023-03-17T02:04:08.354Z,66.62
2023-03-17T02:06:47.487Z,66.06
2023-03-17T02:09:23.012Z,66.79
2023-03-17T02:11:51.419Z,66.93
2023-03-17T02:14:20.464Z,65.81
2023-03-17T02:16:48.502Z,66.62
2023-03-17T02:19:17.203Z,66.74
2023-03-17T02:21:48.630Z,66.37
2023-03-17T02:24:26.389Z,66.76
2023-03-17T02:26:56.513Z,67.83
2023-03-17T02:29:24.728Z,67.67
2023-03-17T02:31:53.315Z,67.40
2023-03-17T02:34:23.264Z,66.21
2023-03-17T02:36:52.436Z,67.39
2023-03-17T02:39:20.773Z,67.71
2023-03-17T02:41:48.621Z,66.86
2023-03-17T02:44:17.195Z,66.60
2023-03-17T02:46:44.964Z,67.44
2023-03-17T02:49:13.753Z,66.96
2023-03-17T02:51:41.541Z,68.83
2023-03-17T02:54:10.878Z,69.33
2023-03-17T02:56:38.794Z,68.35
2023-03-17T02:59:07.134Z,68.32
2023-03-17T03:01:35.295Z,67.65
2023-03-17T03:04:03.552Z,68.77
2023-03-17T03:06:31.649Z,67.63
2023-03-17T03:08:59.621Z,69.00
2023-03-17T03:11:29.354Z,70.74
2023-03-17T03:13:57.342Z,68.20
2023-03-17T03:16:25.212Z,68.27
2023-03-17T03:18:53.127Z,71.16
2023-03-17T03:21:22.033Z,70.48
2023-03-17T03:23:50.396Z,70.29
2023-03-17T03:26:18.193Z,70.35
2023-03-17T03:28:47.286Z,70.87
2023-03-17T03:31:15.112Z,68.49
2023-03-17T03:33:43.544Z,68.25
2023-03-17T03:36:11.464Z,68.96
2023-03-17T03:38:39.240Z,68.38
2023-03-17T03:41:07.365Z,68.00
2023-03-17T03:43:35.777Z,68.33
2023-03-17T03:46:05.663Z,68.63
2023-03-17T03:48:33.557Z,68.17
2023-03-17T03:51:03.112Z,68.32
2023-03-17T03:53:31.231Z,67.78
2023-03-17T03:55:59.204Z,67.60
2023-03-17T03:58:26.992Z,67.45
2023-03-17T04:00:54.892Z,68.06
2023-03-17T04:03:24.014Z,67.35
2023-03-17T04:05:51.788Z,68.55
2023-03-17T04:08:19.534Z,67.46
2023-03-17T04:10:47.530Z,66.66
2023-03-17T04:13:15.404Z,66.70
2023-03-17T04:15:43.554Z,66.21
2023-03-17T04:18:11.525Z,67.76
2023-03-17T04:20:40.720Z,67.24
2023-03-17T04:23:08.671Z,67.67
2023-03-17T04:25:36.712Z,68.45
2023-03-17T04:28:04.748Z,68.02
2023-03-17T04:30:32.820Z,68.24
2023-03-17T04:33:01.071Z,69.17
2023-03-17T04:35:28.957Z,69.61
2023-03-17T04:37:58.048Z,69.14
2023-03-17T04:40:26.539Z,69.42
2023-03-17T04:42:54.242Z,69.06
2023-03-17T04:45:22.024Z,70.08
2023-03-17T04:47:49.730Z,69.42
2023-03-17T04:50:18.002Z,69.13
2023-03-17T04:52:45.710Z,69.01
2023-03-17T04:55:15.056Z,69.19
2023-03-17T04:57:43.073Z,70.10
2023-03-17T05:00:12.854Z,69.23
2023-03-17T05:02:41.168Z,69.46
2023-03-17T05:05:09.895Z,70.05
2023-03-17T05:07:37.739Z,69.00
2023-03-17T05:10:06.544Z,68.94
2023-03-17T05:12:35.905Z,68.43
2023-03-17T05:15:05.388Z,68.91
2023-03-17T05:17:33.145Z,68.97
2023-03-17T05:20:00.892Z,69.73
2023-03-17T05:22:28.663Z,69.36
2023-03-17T05:24:56.548Z,69.87
2023-03-17T05:27:24.425Z,68.77
2023-03-17T05:29:53.560Z,69.73
2023-03-17T05:32:21.340Z,68.65
2023-03-17T05:34:49.165Z,68.43
2023-03-17T05:37:17.472Z,68.38
2023-03-17T05:39:45.362Z,68.55
2023-03-17T05:42:13.073Z,67.21
2023-03-17T05:44:40.753Z,68.15
2023-03-17T05:47:10.276Z,67.36
2023-03-17T05:49:37.989Z,68.80
2023-03-17T05:52:05.776Z,69.75
2023-03-17T05:54:33.514Z,69.25
2023-03-17T05:57:01.252Z,69.30
2023-03-17T05:59:29.064Z,70.60
2023-03-17T06:01:57.251Z,71.48
2023-03-17T06:04:26.503Z,71.64
2023-03-17T06:06:54.304Z,70.65
2023-03-17T06:09:22.021Z,69.56
2023-03-17T06:11:49.852Z,68.74
2023-03-17T06:14:18.065Z,68.38
2023-03-17T06:16:46.130Z,70.40
2023-03-17T06:19:13.907Z,69.53
2023-03-17T06:21:43.061Z,68.14
2023-03-17T06:24:11.299Z,69.50
2023-03-17T06:26:39.085Z,68.67
2023-03-17T06:29:09.463Z,69.20
2023-03-17T06:31:38.084Z,69.38
2023-03-17T06:34:06.118Z,69.65
2023-03-17T06:36:35.227Z,68.59
2023-03-17T06:39:06.189Z,69.74
2023-03-17T06:41:33.962Z,69.27
2023-03-17T06:44:01.710Z,68.52
2023-03-17T06:46:29.567Z,69.43
2023-03-17T06:48:57.348Z,68.61
2023-03-17T06:51:25.586Z,68.94
2023-03-17T06:53:53.368Z,68.88
2023-03-17T06:56:29.873Z,68.85
2023-03-17T06:58:58.600Z,68.86
2023-03-17T07:01:27.291Z,68.10
2023-03-17T07:03:55.444Z,68.52
2023-03-17T07:06:23.873Z,67.57
2023-03-17T07:08:52.393Z,67.67
2023-03-17T07:11:20.317Z,67.99
2023-03-17T07:13:49.438Z,67.07
2023-03-17T07:16:19.580Z,68.19
2023-03-17T07:18:47.804Z,67.16
2023-03-17T07:21:15.631Z,68.57
2023-03-17T07:23:43.433Z,70.22
2023-03-17T07:26:11.235Z,68.78
2023-03-17T07:28:39.049Z,68.63
2023-03-17T07:31:09.443Z,67.88
2023-03-17T07:33:37.280Z,68.16
2023-03-17T07:36:07.120Z,68.09
2023-03-17T07:38:35.057Z,67.82
2023-03-17T07:41:03.662Z,66.32
2023-03-17T07:43:31.902Z,67.95
2023-03-17T07:45:59.761Z,67.80
2023-03-17T07:48:30.151Z,67.25
2023-03-17T07:50:57.926Z,67.20
2023-03-17T07:53:26.397Z,67.25
2023-03-17T07:55:54.373Z,66.54
2023-03-17T07:58:22.736Z,66.08
2023-03-17T08:00:50.519Z,65.58
2023-03-17T08:03:19.323Z,65.31
2023-03-17T08:05:53.360Z,65.46
2023-03-17T08:08:22.163Z,66.46
2023-03-17T08:10:50.021Z,65.14
2023-03-17T08:13:17.829Z,65.81
2023-03-17T08:15:46.339Z,66.23
2023-03-17T08:18:14.354Z,65.21
2023-03-17T08:20:42.159Z,66.13
2023-03-17T08:23:11.708Z,65.58
2023-03-17T08:25:39.745Z,65.39
2023-03-17T08:28:07.977Z,64.70
2023-03-17T08:30:36.248Z,64.38
2023-03-17T08:33:04.363Z,64.07
2023-03-17T08:35:32.420Z,63.83
2023-03-17T08:38:00.591Z,63.30
2023-03-17T08:40:30.301Z,62.31
2023-03-17T08:42:59.340Z,64.18
2023-03-17T08:45:27.246Z,63.26
2023-03-17T08:47:55.003Z,64.73
2023-03-17T08:50:25.158Z,63.04
2023-03-17T08:52:54.319Z,63.00
2023-03-17T08:55:22.240Z,62.87
2023-03-17T08:57:51.293Z,62.54
2023-03-17T09:00:20.951Z,61.42
2023-03-17T09:02:49.718Z,63.65
2023-03-17T09:05:18.510Z,62.61
2023-03-17T09:07:46.270Z,61.74
2023-03-17T09:10:16.764Z,61.75
2023-03-17T09:12:44.596Z,61.55
2023-03-17T09:15:13.835Z,62.88
2023-03-17T09:17:43.296Z,62.38
2023-03-17T09:20:13.796Z,62.52
2023-03-17T09:22:41.498Z,61.91
2023-03-17T09:25:10.093Z,62.24
2023-03-17T09:27:37.885Z,61.54
2023-03-17T09:30:06.335Z,62.05
2023-03-17T09:32:35.446Z,62.51
2023-03-17T09:35:03.912Z,60.80
2023-03-17T09:37:32.454Z,60.85
2023-03-17T09:40:00.229Z,60.49
2023-03-17T09:42:41.356Z,60.11
2023-03-17T09:45:22.404Z,59.01
2023-03-17T09:48:02.906Z,61.01
2023-03-17T09:50:39.066Z,60.08
2023-03-17T09:53:13.759Z,60.16
2023-03-17T09:55:42.039Z,59.81
2023-03-17T09:58:12.655Z,58.18
2023-03-17T10:00:40.453Z,59.63
2023-03-17T10:03:12.887Z,59.78
2023-03-17T10:05:40.997Z,60.41
2023-03-17T10:08:30.153Z,59.02
2023-03-17T10:11:09.445Z,58.29
2023-03-17T10:13:51.002Z,58.37
2023-03-17T10:16:20.766Z,57.66
2023-03-17T10:18:56.531Z,57.27
2023-03-17T10:21:29.680Z,56.78
2023-03-17T10:23:59.287Z,57.96
2023-03-17T10:26:32.786Z,56.84
2023-03-17T10:29:04.107Z,57.14
2023-03-17T10:31:34.640Z,57.83
2023-03-17T10:34:14.310Z,56.86
2023-03-17T10:36:44.516Z,57.62
2023-03-17T10:39:15.596Z,56.86
2023-03-17T10:41:55.295Z,57.99
2023-03-17T10:44:30.637Z,57.35
2023-03-17T10:46:58.435Z,57.13
2023-03-17T10:49:27.625Z,56.11
2023-03-17T10:51:55.580Z,55.67
2023-03-17T10:54:26.476Z,56.79
2023-03-17T10:57:02.221Z,54.33
2023-03-17T10:59:32.989Z,55.39
2023-03-17T11:02:02.452Z,54.19
2023-03-17T11:04:35.629Z,52.07
2023-03-17T11:07:08.021Z,53.07
2023-03-17T11:09:37.981Z,51.61
2023-03-17T11:12:08.794Z,50.91
2023-03-17T11:14:36.603Z,49.24
2023-03-17T11:17:14.629Z,51.42
2023-03-17T11:19:53.506Z,49.38
2023-03-17T11:22:31.372Z,49.03
2023-03-17T11:25:06.715Z,48.86
2023-03-17T11:27:38.280Z,50.91
2023-03-17T11:30:32.367Z,49.22
2023-03-17T11:33:11.275Z,50.50
2023-03-17T11:35:51.404Z,49.58
2023-03-17T11:38:28.122Z,48.90
2023-03-17T11:41:23.617Z,48.34
2023-03-17T11:44:01.585Z,49.54
2023-03-17T11:46:33.749Z,48.62
2023-03-17T11:49:11.246Z,47.49
2023-03-17T11:51:59.151Z,46.31
2023-03-17T11:54:36.425Z,45.73
2023-03-17T11:57:07.495Z,45.83
2023-03-17T11:59:40.497Z,47.77
2023-03-17T12:02:21.487Z,47.24
2023-03-17T12:04:55.669Z,46.31
2023-03-17T12:07:30.058Z,46.08
2023-03-17T12:10:09.115Z,47.39
2023-03-17T12:12:44.916Z,47.88
2023-03-17T12:15:18.398Z,49.34
2023-03-17T12:17:53.122Z,49.73
2023-03-17T12:20:27.840Z,48.76
2023-03-17T12:23:02.427Z,49.38
2023-03-17T12:25:33.804Z,48.93
2023-03-17T12:28:06.578Z,48.68
2023-03-17T12:30:41.164Z,48.12
2023-03-17T12:33:18.218Z,48.76
2023-03-17T12:35:46.272Z,48.50
2023-03-17T12:38:21.833Z,49.29
2023-03-17T12:41:15.292Z,49.69
2023-03-17T12:43:55.754Z,49.18
2023-03-17T12:46:37.943Z,47.77
2023-03-17T12:49:30.486Z,48.46
2023-03-17T12:52:14.688Z,48.86
2023-03-17T12:54:47.885Z,48.32
2023-03-17T12:57:20.238Z,47.32
2023-03-17T12:59:51.315Z,47.28
2023-03-17T13:02:32.077Z,46.97
2023-03-17T13:05:01.892Z,47.06
2023-03-17T13:07:35.937Z,46.71
2023-03-17T13:10:40.040Z,45.71
2023-03-17T13:13:12.474Z,47.21
2023-03-17T13:16:01.089Z,46.47
2023-03-17T13:18:53.392Z,47.91
2023-03-17T13:21:26.311Z,47.66
2023-03-17T13:24:01.315Z,47.79
2023-03-17T13:26:56.407Z,47.01
2023-03-17T13:29:27.611Z,48.45
2023-03-17T13:32:31.572Z,48.48
2023-03-17T13:35:18.945Z,48.37
2023-03-17T13:38:12.936Z,48.66
2023-03-17T13:40:50.929Z,49.10
2023-03-17T13:43:43.325Z,48.52
2023-03-17T13:46:22.340Z,47.98
2023-03-17T13:48:50.472Z,48.91
2023-03-17T13:51:22.732Z,49.92
2023-03-17T13:53:55.399Z,49.01
2023-03-17T13:56:25.686Z,49.70
2023-03-17T13:59:06.161Z,48.69
2023-03-17T14:01:40.651Z,49.06
2023-03-17T14:04:18.239Z,49.14
2023-03-17T14:06:47.966Z,48.60
2023-03-17T14:09:29.314Z,49.58
2023-03-17T14:12:03.583Z,49.21
2023-03-17T14:14:42.063Z,48.44
2023-03-17T14:17:14.947Z,48.83
2023-03-17T14:19:43.234Z,48.87
2023-03-17T14:22:22.308Z,50.39
2023-03-17T14:24:54.064Z,50.17
2023-03-17T14:27:23.936Z,50.20
2023-03-17T14:29:53.711Z,50.15
2023-03-17T14:32:24.798Z,50.72
2023-03-17T14:34:57.152Z,50.06
2023-03-17T14:37:26.077Z,50.46
2023-03-17T14:39:56.250Z,51.30
2023-03-17T14:42:27.956Z,52.22
2023-03-17T14:45:08.833Z,50.71
2023-03-17T14:47:43.203Z,50.74
2023-03-17T14:50:18.236Z,51.38
2023-03-17T14:52:46.140Z,51.75
2023-03-17T14:55:15.674Z,51.87
2023-03-17T14:57:43.915Z,52.39
2023-03-17T15:00:32.828Z,51.88
2023-03-17T15:03:03.340Z,51.58
2023-03-17T15:05:38.523Z,51.16
2023-03-17T15:08:38.663Z,52.13
2023-03-17T15:11:08.249Z,51.71
2023-03-17T15:13:38.461Z,51.24
2023-03-17T15:16:18.196Z,51.59
2023-03-17T15:18:46.703Z,52.51
2023-03-17T15:21:28.342Z,51.31
2023-03-17T15:23:56.314Z,51.28
2023-03-17T15:26:31.527Z,50.81
2023-03-17T15:29:00.584Z,51.97
2023-03-17T15:31:30.604Z,53.08
2023-03-17T15:33:59.121Z,52.13
2023-03-17T15:36:32.708Z,51.84
2023-03-17T15:39:01.234Z,52.94
2023-03-17T15:41:29.037Z,52.38
2023-03-17T15:43:56.910Z,51.84
2023-03-17T15:46:32.180Z,52.18
2023-03-17T15:49:00.374Z,52.14
2023-03-17T15:51:28.268Z,52.19
2023-03-17T15:53:56.187Z,52.09
2023-03-17T15:56:24.019Z,52.19
2023-03-17T15:58:52.361Z,52.71
2023-03-17T16:01:21.201Z,52.45
2023-03-17T16:03:50.880Z,53.59
2023-03-17T16:06:21.212Z,52.88
2023-03-17T16:08:49.871Z,52.88
2023-03-17T16:11:19.453Z,53.11
2023-03-17T16:13:48.176Z,52.88
2023-03-17T16:16:21.318Z,52.77
2023-03-17T16:18:52.472Z,52.93
2023-03-17T16:21:20.751Z,53.25
2023-03-17T16:23:50.025Z,53.67
2023-03-17T16:26:17.800Z,53.78
2023-03-17T16:28:47.504Z,53.54
2023-03-17T16:31:22.408Z,53.36
2023-03-17T16:33:52.809Z,53.65
2023-03-17T16:36:22.490Z,53.82
2023-03-17T16:38:51.048Z,53.53
2023-03-17T16:41:21.514Z,52.92
2023-03-17T16:43:52.608Z,53.31
2023-03-17T16:46:22.727Z,53.78
2023-03-17T16:48:52.661Z,55.51
2023-03-17T16:51:20.650Z,59.17
2023-03-17T16:53:48.756Z,63.95
2023-03-17T16:56:19.467Z,65.47
2023-03-17T16:58:48.009Z,67.87
2023-03-17T17:01:19.139Z,67.78
2023-03-17T17:03:47.280Z,66.75
2023-03-17T17:06:16.647Z,63.80
2023-03-17T17:08:44.925Z,63.90
2023-03-17T17:11:13.993Z,63.98
2023-03-17T17:13:42.419Z,64.26
2023-03-17T17:16:20.140Z,64.31
2023-03-17T17:18:48.276Z,68.05
2023-03-17T17:21:17.537Z,67.91
2023-03-17T17:23:45.329Z,65.69
2023-03-17T17:26:13.227Z,62.90
2023-03-17T17:28:41.322Z,63.07
2023-03-17T17:31:10.021Z,63.79
2023-03-17T17:33:38.604Z,62.25
2023-03-17T17:36:12.716Z,62.10
2023-03-17T17:38:42.235Z,61.49
2023-03-17T17:41:11.781Z,61.56
2023-03-17T17:43:39.888Z,61.28
2023-03-17T17:46:17.606Z,62.87
2023-03-17T17:48:45.880Z,62.54
2023-03-17T17:51:13.880Z,64.27
2023-03-17T17:53:43.006Z,64.73
2023-03-17T17:56:15.240Z,64.82
2023-03-17T17:58:43.786Z,66.13
2023-03-17T18:01:13.491Z,65.41
2023-03-17T18:03:42.860Z,66.14
2023-03-17T18:06:11.625Z,65.66
2023-03-17T18:08:39.520Z,65.54
2023-03-17T18:11:08.940Z,64.59
2023-03-17T18:13:38.961Z,64.66
2023-03-17T18:16:09.808Z,63.91
2023-03-17T18:18:40.578Z,65.16
2023-03-17T18:21:08.347Z,65.33
2023-03-17T18:23:36.478Z,66.19
2023-03-17T18:26:06.014Z,66.33
2023-03-17T18:28:35.211Z,65.68
2023-03-17T18:31:10.448Z,66.89
2023-03-17T18:33:39.728Z,67.20
2023-03-17T18:36:08.811Z,68.96
2023-03-17T18:38:37.124Z,67.34
2023-03-17T18:41:05.424Z,66.63
2023-03-17T18:43:33.152Z,66.25
2023-03-17T18:46:02.393Z,66.18
2023-03-17T18:48:30.896Z,66.87
2023-03-17T18:50:58.731Z,65.85
2023-03-17T18:53:27.095Z,65.09
2023-03-17T18:55:54.858Z,66.13
2023-03-17T18:58:22.740Z,65.80
2023-03-17T19:00:50.538Z,65.89
2023-03-17T19:03:19.920Z,66.95
2023-03-17T19:05:47.762Z,66.53
2023-03-17T19:08:16.602Z,67.23
2023-03-17T19:10:44.940Z,66.09
2023-03-17T19:13:13.279Z,66.31
2023-03-17T19:15:41.474Z,66.33
2023-03-17T19:18:09.715Z,67.35
2023-03-17T19:20:38.841Z,67.53
2023-03-17T19:23:07.903Z,68.08
2023-03-17T19:25:36.753Z,69.72
2023-03-17T19:28:05.347Z,68.47
2023-03-17T19:30:33.322Z,68.87
2023-03-17T19:33:01.387Z,68.42
2023-03-17T19:35:29.166Z,68.93
2023-03-17T19:37:58.739Z,71.32
2023-03-17T19:40:26.843Z,73.92
2023-03-17T19:42:56.029Z,74.92
2023-03-17T19:45:23.953Z,76.55
2023-03-17T19:47:51.713Z,78.01
2023-03-17T19:50:20.543Z,77.22
2023-03-17T19:52:48.729Z,77.34
2023-03-17T19:55:17.951Z,74.91
2023-03-17T19:57:45.744Z,74.94
2023-03-17T20:00:14.584Z,73.13
2023-03-17T20:02:42.448Z,71.38
2023-03-17T20:05:10.785Z,72.95
2023-03-17T20:07:38.776Z,72.55
2023-03-17T20:10:08.130Z,71.20
2023-03-17T20:12:38.400Z,70.48
2023-03-17T20:15:07.851Z,71.05
2023-03-17T20:17:36.263Z,71.04
2023-03-17T20:20:04.699Z,72.67
2023-03-17T20:22:33.443Z,75.25
2023-03-17T20:25:03.716Z,78.41
2023-03-17T20:27:32.174Z,77.56
2023-03-17T20:30:01.390Z,77.62
2023-03-17T20:32:29.891Z,81.58
2023-03-17T20:34:58.205Z,85.14
2023-03-17T20:37:25.906Z,88.51
2023-03-17T20:39:57.297Z,88.01
2023-03-17T20:42:31.212Z,91.86
2023-03-17T20:44:59.052Z,99.54
2023-03-17T20:47:28.250Z,100.00
2023-03-17T20:49:58.803Z,100.00
2023-03-17T20:52:29.995Z,100.00
2023-03-17T20:54:59.478Z,100.00
2023-03-17T20:57:27.616Z,100.00
2023-03-17T21:00:00.964Z,100.00
2023-03-17T21:02:30.460Z,100.00
2023-03-17T21:05:01.009Z,100.00
2023-03-17T21:07:28.858Z,100.00
2023-03-17T21:09:56.849Z,100.00
2023-03-17T21:12:28.434Z,100.00
2023-03-17T21:14:56.255Z,100.00
2023-03-17T21:17:24.507Z,100.00
2023-03-17T21:19:54.660Z,100.00
2023-03-17T21:22:22.522Z,100.00
2023-03-17T21:24:53.064Z,100.00
2023-03-17T21:27:23.652Z,100.00
2023-03-17T21:29:54.507Z,100.00
2023-03-17T21:32:22.366Z,100.00
2023-03-17T21:34:50.532Z,100.00
2023-03-17T21:37:19.680Z,100.00
2023-03-17T21:39:47.553Z,100.00
2023-03-17T21:42:15.368Z,100.00
2023-03-17T21:44:43.329Z,100.00
2023-03-17T21:47:11.258Z,100.00
2023-03-17T21:49:39.030Z,100.00
2023-03-17T21:52:07.244Z,100.00
2023-03-17T21:54:36.711Z,100.00
2023-03-17T21:57:05.199Z,100.00
2023-03-17T21:59:35.596Z,100.00
2023-03-17T22:02:03.878Z,100.00
2023-03-17T22:04:31.639Z,100.00
2023-03-17T22:06:59.884Z,100.00
2023-03-17T22:09:27.800Z,100.00
2023-03-17T22:11:56.986Z,100.00
2023-03-17T22:14:24.744Z,100.00
2023-03-17T22:16:57.153Z,100.00
2023-03-17T22:19:25.107Z,100.00
2023-03-17T22:21:53.093Z,100.00
2023-03-17T22:24:21.507Z,100.00
2023-03-17T22:26:49.260Z,100.00
2023-03-17T22:29:18.830Z,100.00
2023-03-17T22:31:46.842Z,100.00
2023-03-17T22:34:14.721Z,100.00
2023-03-17T22:36:42.480Z,100.00
2023-03-17T22:39:10.883Z,100.00
2023-03-17T22:41:39.522Z,100.00
2023-03-17T22:44:08.405Z,100.00
2023-03-17T22:46:40.732Z,100.00
2023-03-17T22:49:09.115Z,100.00
2023-03-17T22:51:37.566Z,100.00
2023-03-17T22:54:05.675Z,100.00
2023-03-17T22:56:33.443Z,100.00
2023-03-17T22:59:01.969Z,100.00
2023-03-17T23:01:29.700Z,100.00
2023-03-17T23:03:58.884Z,100.00
2023-03-17T23:06:26.736Z,100.00
2023-03-17T23:08:54.601Z,100.00
2023-03-17T23:11:24.495Z,100.00
2023-03-17T23:13:53.610Z,100.00
2023-03-17T23:16:22.104Z,100.00
2023-03-17T23:18:50.706Z,100.00
2023-03-17T23:21:24.110Z,100.00
2023-03-17T23:23:51.942Z,100.00
2023-03-17T23:26:19.733Z,100.00
2023-03-17T23:28:47.595Z,100.00
2023-03-17T23:31:15.944Z,100.00
2023-03-17T23:33:43.949Z,100.00
2023-03-17T23:36:13.969Z,100.00
2023-03-17T23:38:44.057Z,100.00
2023-03-17T23:41:12.662Z,100.00
2023-03-17T23:43:41.460Z,100.00
2023-03-17T23:46:09.367Z,100.00
2023-03-17T23:48:37.697Z,100.00
2023-03-17T23:51:05.831Z,100.00
2023-03-17T23:53:33.907Z,100.00
2023-03-17T23:56:03.817Z,100.00
2023-03-17T23:58:31.911Z,100.00
